Perdix, Pennsylvania
Current Conditions -  °F | °C
As of 1:56 AM on Sunday 23 Nov 2014 (Local Time) from KCXY Reporting Station
Broken Clouds Broken Clouds  
Wind Chill: 35°   Ceiling: 12000
Heat Index: 35°   Visibility: 10mi
Dew Point: 23°   Wind: 0mph
Humidity: 61%   Direction: NA
Pressure: 30.18"   Gusts: NA
Location:  40.4048°N, 77.0696°W
Report Text: KCXY 230656Z AUTO 00000KT 10SM BKN120 02/M05 A3018 RMK AO2 SLP225 T00171050
Loading
Personal Weather Stations






























Interactive Weather Map New forecast layout! Learn more

10-Day Weather Forecast

Advertisements
Track Severe Weather on mobile